HUN weather

Hualien Airport
Hualien City, Hualien County, Taiwan

Public forecast

Using degrees Celsius for public forecast. Weather courtesy of forecast.io.

METAR (pilot weather report)

Closest report is Taichung Ching Chuang Kang Airport, 56.5 nm (104.7 km) WNW. Retrieved 2019/04/26 15:17 UTC (23 minutes ago):

RCMQ 261517Z 09006KT 4000 -RA BR SCT010 BKN016 OVC030 25/24 Q1011 RMK A2987

TAF (pilot weather forecast)

Closest forecast is Taichung Ching Chuang Kang Airport, 56.5 nm (104.7 km) WNW. Retrieved 2019/04/26 12:36 UTC (3 hours ago):

TAF RCMQ 261100Z 2612/2712 36008KT 9999 FEW010 BKN100 TX30/2706Z TN22/2621Z TEMPO 2613/2618 7000 RA FEW008 BKN016 BKN030 BECMG 2619/2622 8000 FEW010 BKN050 BECMG 2623/2702 03015KT 9999 FEW010 SCT060 BECMG 2706/2709 34008KT FEW010 BKN060